Time;durP1;ratioP1;P1;durP2;ratioP2;P2;SDS_P1;SDS_P2;PMS_P1;PMS_P2;Temp;Humidity;BMP_temperature;BMP_pressure;BME280_temperature;BME280_humidity;BME280_pressure;Samples;Min_cycle;Max_cycle;Signal;HPM_P1;HPM_P2
2024/04/13 00:02:00;;;;;;;14.90;9.90;;;;;;;;;;5419646;26;20852;-76
2024/04/13 00:04:26;;;;;;;16.87;10.83;;;;;;;;;;5419543;26;20453;-75
2024/04/13 00:06:54;;;;;;;17.27;10.73;;;;;;;;;;5388302;26;20463;-76
2024/04/13 00:09:20;;;;;;;18.53;9.77;;;;;;;;;;5419493;26;20816;-75
2024/04/13 00:11:46;;;;;;;19.63;9.63;;;;;;;;;;5419212;26;21029;-75
2024/04/13 00:14:12;;;;;;;13.70;8.63;;;;;;;;;;5418955;26;20451;-75
2024/04/13 00:16:38;;;;;;;17.20;10.70;;;;;;;;;;5419453;26;20462;-76
2024/04/13 00:19:04;;;;;;;17.67;11.40;;;;;;;;;;5419376;26;20489;-75
2024/04/13 00:21:30;;;;;;;17.37;10.23;;;;;;;;;;5419184;26;20467;-75
2024/04/13 00:23:56;;;;;;;19.40;11.57;;;;;;;;;;5419557;26;20892;-78
2024/04/13 00:26:24;;;;;;;23.40;11.53;;;;;;;;;;5419654;26;20456;-76
2024/04/13 00:28:53;;;;;;;17.90;11.30;;;;;;;;;;5419718;26;20489;-75
2024/04/13 00:31:20;;;;;;;15.40;9.93;;;;;;;;;;5413737;26;20504;-75
2024/04/13 00:33:47;;;;;;;19.53;10.97;;;;;;;;;;5403526;26;20483;-78
2024/04/13 00:36:13;;;;;;;17.47;11.50;;;;;;;;;;5383754;26;20514;-90
2024/04/13 00:38:38;;;;;;;17.50;10.20;;;;;;;;;;5390069;26;20465;-89
2024/04/13 00:41:05;;;;;;;16.47;10.43;;;;;;;;;;5415849;26;20538;-77
2024/04/13 00:43:31;;;;;;;19.57;9.93;;;;;;;;;;5419410;26;20564;-75
2024/04/13 00:46:06;;;;;;;18.57;9.43;;;;;;;;;;5417018;26;20461;-76
2024/04/13 00:48:38;;;;;;;17.00;10.00;;;;;;;;;;5418892;26;20497;-75
2024/04/13 00:51:05;;;;;;;26.17;12.43;;;;;;;;;;5418943;26;20465;-75
2024/04/13 00:53:36;;;;;;;17.50;10.77;;;;;;;;;;5418819;26;20516;-75
2024/04/13 00:56:06;;;;;;;15.47;9.67;;;;;;;;;;5418953;26;20462;-75
2024/04/13 00:58:32;;;;;;;18.90;10.53;;;;;;;;;;5418808;26;21092;-75
2024/04/13 01:00:59;;;;;;;13.33;9.97;;;;;;;;;;5417511;26;20450;-75
2024/04/13 01:03:26;;;;;;;16.07;10.67;;;;;;;;;;5390499;26;20459;-75
2024/04/13 01:05:52;;;;;;;13.77;9.80;;;;;;;;;;5383208;26;20494;-76
2024/04/13 01:08:20;;;;;;;15.10;8.67;;;;;;;;;;5383199;26;20535;-75
2024/04/13 01:10:46;;;;;;;17.13;10.60;;;;;;;;;;5380693;26;20454;-77
2024/04/13 01:13:12;;;;;;;16.03;9.17;;;;;;;;;;5386431;26;20795;-75
2024/04/13 01:15:38;;;;;;;18.40;9.57;;;;;;;;;;5408385;26;20512;-79
2024/04/13 01:18:05;;;;;;;14.10;7.17;;;;;;;;;;5388101;26;20454;-75
2024/04/13 01:20:33;;;;;;;14.70;8.63;;;;;;;;;;5396614;26;20513;-75
2024/04/13 01:23:02;;;;;;;17.97;8.20;;;;;;;;;;5392751;26;21037;-75
2024/04/13 01:25:29;;;;;;;15.70;7.80;;;;;;;;;;5382918;26;20443;-76
2024/04/13 01:27:56;;;;;;;12.33;7.70;;;;;;;;;;5382909;26;20860;-75
2024/04/13 01:30:24;;;;;;;13.23;7.70;;;;;;;;;;5380599;26;20460;-76
2024/04/13 01:32:51;;;;;;;18.37;9.13;;;;;;;;;;5382640;26;20452;-76
2024/04/13 01:35:19;;;;;;;15.00;7.80;;;;;;;;;;5382810;26;20789;-76
2024/04/13 01:37:45;;;;;;;10.37;7.00;;;;;;;;;;5382814;26;21045;-76
2024/04/13 01:40:12;;;;;;;12.10;7.17;;;;;;;;;;5382562;26;20458;-75
2024/04/13 01:42:39;;;;;;;9.83;7.33;;;;;;;;;;5382607;26;20444;-76
2024/04/13 01:45:05;;;;;;;12.93;6.90;;;;;;;;;;5384282;26;20497;-76
2024/04/13 01:47:31;;;;;;;13.23;6.77;;;;;;;;;;5395838;26;20503;-81
2024/04/13 01:49:57;;;;;;;15.13;6.93;;;;;;;;;;5382993;26;20444;-76
2024/04/13 01:52:23;;;;;;;9.50;6.83;;;;;;;;;;5383612;26;20807;-77
2024/04/13 01:54:50;;;;;;;13.73;6.60;;;;;;;;;;5418103;26;20528;-76
2024/04/13 01:57:16;;;;;;;16.10;6.77;;;;;;;;;;5418037;26;20449;-76
2024/04/13 01:59:42;;;;;;;12.17;8.17;;;;;;;;;;5417441;26;20852;-77
2024/04/13 02:02:09;;;;;;;17.63;8.03;;;;;;;;;;5417222;26;20467;-75
2024/04/13 02:04:35;;;;;;;14.60;7.70;;;;;;;;;;5417796;26;20508;-76
2024/04/13 02:07:02;;;;;;;12.60;8.13;;;;;;;;;;5417958;26;20448;-77
2024/04/13 02:09:28;;;;;;;12.93;6.07;;;;;;;;;;5417716;26;20835;-76
2024/04/13 02:11:54;;;;;;;14.90;7.17;;;;;;;;;;5417581;26;20562;-76
2024/04/13 02:14:20;;;;;;;14.10;8.03;;;;;;;;;;5417486;26;20449;-76
2024/04/13 02:16:46;;;;;;;7.00;6.00;;;;;;;;;;5417758;26;20449;-76
2024/04/13 02:19:12;;;;;;;8.53;6.20;;;;;;;;;;5417568;26;20449;-78
2024/04/13 02:21:38;;;;;;;11.07;6.93;;;;;;;;;;5415769;26;20517;-77
2024/04/13 02:24:04;;;;;;;8.57;5.43;;;;;;;;;;5417630;26;20489;-77
2024/04/13 02:26:30;;;;;;;10.80;5.23;;;;;;;;;;5416945;26;20453;-77
2024/04/13 02:28:58;;;;;;;10.23;5.00;;;;;;;;;;5399780;26;21063;-76
2024/04/13 02:31:23;;;;;;;8.13;3.50;;;;;;;;;;5382322;26;20431;-76
2024/04/13 02:33:49;;;;;;;9.90;5.60;;;;;;;;;;5381867;26;20501;-76
2024/04/13 02:36:15;;;;;;;7.20;4.00;;;;;;;;;;5380141;26;20221;-77
2024/04/13 02:38:46;;;;;;;11.90;4.50;;;;;;;;;;5389504;26;20212;-76
2024/04/13 02:41:13;;;;;;;9.63;4.50;;;;;;;;;;5417329;26;20510;-76
2024/04/13 02:43:38;;;;;;;9.50;4.43;;;;;;;;;;5417285;26;20480;-77
2024/04/13 02:46:08;;;;;;;7.37;4.00;;;;;;;;;;5417009;26;20470;-77
2024/04/13 02:48:47;;;;;;;8.30;3.80;;;;;;;;;;5415339;26;20433;-76
2024/04/13 02:51:17;;;;;;;7.70;3.50;;;;;;;;;;5417181;26;20955;-76
2024/04/13 02:53:44;;;;;;;9.30;4.70;;;;;;;;;;5412918;26;20954;-77
2024/04/13 02:56:10;;;;;;;9.17;4.10;;;;;;;;;;5381761;26;20504;-76
2024/04/13 02:58:37;;;;;;;6.80;4.37;;;;;;;;;;5381630;26;20447;-77
2024/04/13 03:01:03;;;;;;;11.53;4.83;;;;;;;;;;5381081;26;20447;-76
2024/04/13 03:03:29;;;;;;;5.93;3.80;;;;;;;;;;5381552;26;20459;-76
2024/04/13 03:06:02;;;;;;;8.43;3.10;;;;;;;;;;5381461;26;20561;-76
2024/04/13 03:08:28;;;;;;;8.80;4.10;;;;;;;;;;5381451;26;20500;-76
2024/04/13 03:10:57;;;;;;;8.20;5.37;;;;;;;;;;5381324;26;20499;-77
2024/04/13 03:13:23;;;;;;;11.10;4.67;;;;;;;;;;5381237;26;20439;-76
2024/04/13 03:15:58;;;;;;;8.47;4.40;;;;;;;;;;5380943;26;21081;-76
2024/04/13 03:18:27;;;;;;;7.13;3.40;;;;;;;;;;5381319;26;20450;-76
2024/04/13 03:20:53;;;;;;;12.93;4.37;;;;;;;;;;5381110;26;20518;-76
2024/04/13 03:23:19;;;;;;;5.67;3.07;;;;;;;;;;5381043;26;20968;-76
2024/04/13 03:25:45;;;;;;;7.50;3.30;;;;;;;;;;5381116;26;20446;-76
2024/04/13 03:28:11;;;;;;;6.23;3.97;;;;;;;;;;5380825;26;20497;-76
2024/04/13 03:30:38;;;;;;;9.93;4.60;;;;;;;;;;5383808;26;20689;-76
2024/04/13 03:33:04;;;;;;;9.53;3.73;;;;;;;;;;5381631;26;20462;-76
2024/04/13 03:35:36;;;;;;;8.43;4.37;;;;;;;;;;5395832;26;21028;-77
2024/04/13 03:38:01;;;;;;;9.77;3.83;;;;;;;;;;5420025;26;20811;-76
2024/04/13 03:40:27;;;;;;;8.37;4.60;;;;;;;;;;5419908;26;20560;-76
2024/04/13 03:42:53;;;;;;;10.83;4.57;;;;;;;;;;5419862;26;21014;-76
2024/04/13 03:45:19;;;;;;;8.00;4.37;;;;;;;;;;5419643;26;20449;-76
2024/04/13 03:47:45;;;;;;;5.57;3.70;;;;;;;;;;5419913;26;20794;-76
2024/04/13 03:50:11;;;;;;;6.43;3.97;;;;;;;;;;5405926;26;20311;-76
2024/04/13 03:52:37;;;;;;;10.13;4.77;;;;;;;;;;5384189;26;20442;-77
2024/04/13 03:55:06;;;;;;;10.00;4.03;;;;;;;;;;5384294;26;20442;-77
2024/04/13 03:57:32;;;;;;;7.07;3.67;;;;;;;;;;5384253;26;20591;-77
2024/04/13 03:59:58;;;;;;;6.70;4.27;;;;;;;;;;5381992;26;20517;-77
2024/04/13 04:02:24;;;;;;;9.70;4.33;;;;;;;;;;5384082;26;20225;-77
2024/04/13 04:04:50;;;;;;;9.70;4.40;;;;;;;;;;5383998;26;20850;-77
2024/04/13 04:07:16;;;;;;;9.40;3.40;;;;;;;;;;5384138;26;20446;-77
2024/04/13 04:09:42;;;;;;;11.30;4.80;;;;;;;;;;5390924;26;20449;-77
2024/04/13 04:12:09;;;;;;;8.63;4.13;;;;;;;;;;5417760;26;20457;-77
2024/04/13 04:14:35;;;;;;;8.00;3.70;;;;;;;;;;5419204;26;20441;-77
2024/04/13 04:17:01;;;;;;;7.50;3.80;;;;;;;;;;5419392;26;20446;-77
2024/04/13 04:19:28;;;;;;;5.97;3.50;;;;;;;;;;5419437;26;20522;-77
2024/04/13 04:21:54;;;;;;;9.03;4.03;;;;;;;;;;5419232;26;20580;-77
2024/04/13 04:24:22;;;;;;;7.90;3.70;;;;;;;;;;5417571;26;20465;-77
2024/04/13 04:26:48;;;;;;;7.50;4.53;;;;;;;;;;5419299;26;20813;-77
2024/04/13 04:29:14;;;;;;;6.47;3.13;;;;;;;;;;5419061;26;20450;-77
2024/04/13 04:31:41;;;;;;;7.77;3.60;;;;;;;;;;5419269;26;20446;-77
2024/04/13 04:34:07;;;;;;;9.00;4.73;;;;;;;;;;5419122;26;20953;-77
2024/04/13 04:36:33;;;;;;;7.63;4.60;;;;;;;;;;5419189;26;20452;-77
2024/04/13 04:38:59;;;;;;;7.40;3.50;;;;;;;;;;5419031;26;20575;-77
2024/04/13 04:41:26;;;;;;;5.13;3.10;;;;;;;;;;5419141;26;20455;-78
2024/04/13 04:43:52;;;;;;;5.13;2.83;;;;;;;;;;5417821;26;20966;-77
2024/04/13 04:46:20;;;;;;;6.73;3.80;;;;;;;;;;5418523;26;20454;-77
2024/04/13 04:48:49;;;;;;;4.93;2.73;;;;;;;;;;5418947;26;20546;-77
2024/04/13 04:51:15;;;;;;;6.30;3.47;;;;;;;;;;5419075;26;20565;-77
2024/04/13 04:53:41;;;;;;;6.07;3.70;;;;;;;;;;5410941;26;20516;-77
2024/04/13 04:56:07;;;;;;;8.17;3.83;;;;;;;;;;5418889;26;20445;-77
2024/04/13 04:58:33;;;;;;;8.07;3.07;;;;;;;;;;5418240;26;20845;-77
2024/04/13 05:00:59;;;;;;;5.83;3.60;;;;;;;;;;5418768;26;20458;-77
2024/04/13 05:03:24;;;;;;;3.87;2.50;;;;;;;;;;5417065;26;20446;-77
2024/04/13 05:05:51;;;;;;;7.20;4.03;;;;;;;;;;5418822;26;20442;-77
2024/04/13 05:08:17;;;;;;;7.67;3.57;;;;;;;;;;5418861;26;20223;-77
2024/04/13 05:10:43;;;;;;;8.93;3.87;;;;;;;;;;5418721;26;20493;-77
2024/04/13 05:13:09;;;;;;;5.53;4.67;;;;;;;;;;5418720;26;20451;-76
2024/04/13 05:15:35;;;;;;;6.33;4.73;;;;;;;;;;5418423;26;20540;-77
2024/04/13 05:18:02;;;;;;;7.83;4.23;;;;;;;;;;5418587;26;20449;-77
2024/04/13 05:20:28;;;;;;;6.17;3.37;;;;;;;;;;5418468;26;20455;-77
2024/04/13 05:22:54;;;;;;;7.37;3.63;;;;;;;;;;5414882;26;20584;-76
2024/04/13 05:25:20;;;;;;;4.40;4.00;;;;;;;;;;5382971;26;20493;-76
2024/04/13 05:27:46;;;;;;;6.93;4.13;;;;;;;;;;5382897;26;20448;-77
2024/04/13 05:30:12;;;;;;;6.40;3.97;;;;;;;;;;5382595;26;20976;-77
2024/04/13 05:32:40;;;;;;;5.33;4.07;;;;;;;;;;5382801;26;20259;-76
2024/04/13 05:35:06;;;;;;;5.20;2.77;;;;;;;;;;5382883;26;21048;-77
2024/04/13 05:37:32;;;;;;;4.50;3.60;;;;;;;;;;5382802;26;21058;-76
2024/04/13 05:39:58;;;;;;;6.00;3.27;;;;;;;;;;5382835;26;20438;-77
2024/04/13 05:42:24;;;;;;;5.30;4.00;;;;;;;;;;5382846;26;20265;-76
2024/04/13 05:44:50;;;;;;;8.10;2.83;;;;;;;;;;5380713;26;20225;-77
2024/04/13 05:47:16;;;;;;;6.73;3.17;;;;;;;;;;5382583;26;20216;-77
2024/04/13 05:49:43;;;;;;;6.53;3.67;;;;;;;;;;5382627;26;20638;-77
2024/04/13 05:52:09;;;;;;;4.90;3.40;;;;;;;;;;5382561;26;20330;-76
2024/04/13 05:54:35;;;;;;;4.70;3.10;;;;;;;;;;5382459;26;20448;-77
2024/04/13 05:57:00;;;;;;;5.13;3.70;;;;;;;;;;5382323;26;20260;-76
2024/04/13 05:59:26;;;;;;;6.07;3.17;;;;;;;;;;5382131;26;20503;-77
2024/04/13 06:01:52;;;;;;;5.17;3.90;;;;;;;;;;5382523;26;20222;-77
2024/04/13 06:04:18;;;;;;;7.13;3.80;;;;;;;;;;5380722;26;20555;-77
2024/04/13 06:06:44;;;;;;;5.17;3.47;;;;;;;;;;5382428;26;21018;-77
2024/04/13 06:09:10;;;;;;;6.47;3.77;;;;;;;;;;5382427;26;20323;-77
2024/04/13 06:11:36;;;;;;;3.30;2.83;;;;;;;;;;5382333;26;20441;-77
2024/04/13 06:14:02;;;;;;;9.27;3.67;;;;;;;;;;5379855;26;20444;-77
2024/04/13 06:16:28;;;;;;;5.17;3.23;;;;;;;;;;5382327;26;20451;-78
2024/04/13 06:18:54;;;;;;;8.23;4.20;;;;;;;;;;5382347;26;20218;-77
2024/04/13 06:21:20;;;;;;;8.23;3.80;;;;;;;;;;5382143;26;20340;-77
2024/04/13 06:23:45;;;;;;;6.13;3.20;;;;;;;;;;5380310;26;20456;-78
2024/04/13 06:26:12;;;;;;;6.20;3.13;;;;;;;;;;5381942;26;20273;-78
2024/04/13 06:28:38;;;;;;;5.33;3.10;;;;;;;;;;5381514;26;20447;-78
2024/04/13 06:31:04;;;;;;;5.83;3.13;;;;;;;;;;5381849;26;20448;-78
2024/04/13 06:33:30;;;;;;;5.00;2.43;;;;;;;;;;5381844;26;20839;-78
2024/04/13 06:35:56;;;;;;;3.80;2.27;;;;;;;;;;5382148;26;20563;-78
2024/04/13 06:38:23;;;;;;;5.73;2.80;;;;;;;;;;5381847;26;20992;-78
2024/04/13 06:40:50;;;;;;;5.60;2.13;;;;;;;;;;5381933;26;20221;-78
2024/04/13 06:43:16;;;;;;;6.97;2.80;;;;;;;;;;5381424;26;20448;-78
2024/04/13 06:45:42;;;;;;;6.63;3.20;;;;;;;;;;5381906;26;20439;-77
2024/04/13 06:48:08;;;;;;;3.10;2.03;;;;;;;;;;5381859;26;20695;-77
2024/04/13 06:50:34;;;;;;;2.50;1.50;;;;;;;;;;5381712;26;20265;-77
2024/04/13 06:53:00;;;;;;;4.20;2.50;;;;;;;;;;5381586;26;20564;-79
2024/04/13 06:55:26;;;;;;;3.87;2.63;;;;;;;;;;5381562;26;20508;-77
2024/04/13 06:57:52;;;;;;;4.90;2.67;;;;;;;;;;5381772;26;20216;-77
2024/04/13 07:00:19;;;;;;;3.27;2.00;;;;;;;;;;5381126;26;20507;-78
2024/04/13 07:02:45;;;;;;;5.03;3.07;;;;;;;;;;5381568;26;20452;-78
2024/04/13 07:05:11;;;;;;;3.80;2.00;;;;;;;;;;5381387;26;20454;-77
2024/04/13 07:07:37;;;;;;;5.27;2.40;;;;;;;;;;5380195;26;20787;-77
2024/04/13 07:10:04;;;;;;;5.50;2.80;;;;;;;;;;5384774;26;20266;-77
2024/04/13 07:12:30;;;;;;;5.53;3.20;;;;;;;;;;5384521;26;20450;-78
2024/04/13 07:14:56;;;;;;;2.97;2.13;;;;;;;;;;5384208;26;20492;-77
2024/04/13 07:17:22;;;;;;;4.57;2.60;;;;;;;;;;5384748;26;20559;-77
2024/04/13 07:19:47;;;;;;;7.20;3.13;;;;;;;;;;5384544;26;20559;-79
2024/04/13 07:22:13;;;;;;;4.70;2.60;;;;;;;;;;5384461;26;20466;-76
2024/04/13 07:24:39;;;;;;;4.67;2.57;;;;;;;;;;5384420;26;20270;-76
2024/04/13 07:27:05;;;;;;;5.17;3.23;;;;;;;;;;5384718;26;20264;-76
2024/04/13 07:29:31;;;;;;;5.67;2.97;;;;;;;;;;5394873;26;20226;-76
2024/04/13 07:31:57;;;;;;;7.90;2.80;;;;;;;;;;5419923;26;20456;-77
2024/04/13 07:34:23;;;;;;;4.53;2.80;;;;;;;;;;5418271;26;20223;-80
2024/04/13 07:36:49;;;;;;;3.67;1.93;;;;;;;;;;5420077;26;20227;-77
2024/04/13 07:39:15;;;;;;;5.17;2.80;;;;;;;;;;5419801;26;20230;-77
2024/04/13 07:41:41;;;;;;;6.43;2.60;;;;;;;;;;5419662;26;20277;-76
2024/04/13 07:44:07;;;;;;;5.07;1.97;;;;;;;;;;5419485;26;20568;-77
2024/04/13 07:46:33;;;;;;;4.37;2.83;;;;;;;;;;5419932;26;20816;-76
2024/04/13 07:48:59;;;;;;;4.27;1.80;;;;;;;;;;5419976;26;20453;-77
2024/04/13 07:51:25;;;;;;;5.67;2.73;;;;;;;;;;5419987;26;20449;-75
2024/04/13 07:53:51;;;;;;;4.80;2.77;;;;;;;;;;5419775;26;20552;-77
2024/04/13 07:56:17;;;;;;;3.07;2.27;;;;;;;;;;5419882;26;20215;-76
2024/04/13 07:58:43;;;;;;;3.60;2.87;;;;;;;;;;5419204;26;20452;-77
2024/04/13 08:01:09;;;;;;;4.60;2.00;;;;;;;;;;5419730;26;20437;-77
2024/04/13 08:03:35;;;;;;;6.07;2.10;;;;;;;;;;5417817;26;20446;-84
2024/04/13 08:06:01;;;;;;;5.23;2.43;;;;;;;;;;5419681;26;20516;-77
2024/04/13 08:08:27;;;;;;;4.20;2.50;;;;;;;;;;5419490;26;20447;-77
2024/04/13 08:10:53;;;;;;;5.73;1.90;;;;;;;;;;5417676;26;20570;-77
2024/04/13 08:13:19;;;;;;;6.20;2.70;;;;;;;;;;5418993;26;20260;-77
2024/04/13 08:15:45;;;;;;;3.07;1.77;;;;;;;;;;5419397;26;20233;-78
2024/04/13 08:18:11;;;;;;;4.47;1.87;;;;;;;;;;5419452;26;20452;-79
2024/04/13 08:20:37;;;;;;;2.90;2.17;;;;;;;;;;5419183;26;20242;-77
2024/04/13 08:23:05;;;;;;;3.10;1.93;;;;;;;;;;5419402;26;20528;-76
2024/04/13 08:25:31;;;;;;;4.60;2.17;;;;;;;;;;5419438;26;20523;-77
2024/04/13 08:27:57;;;;;;;4.53;2.17;;;;;;;;;;5418847;26;20563;-77
2024/04/13 08:30:23;;;;;;;3.70;2.17;;;;;;;;;;5417419;26;20845;-78
2024/04/13 08:32:49;;;;;;;4.33;1.93;;;;;;;;;;5417144;26;21041;-78
2024/04/13 08:35:15;;;;;;;6.73;1.90;;;;;;;;;;5419140;26;20452;-78
2024/04/13 08:37:41;;;;;;;3.23;2.00;;;;;;;;;;5419048;26;21095;-77
2024/04/13 08:40:13;;;;;;;6.47;3.00;;;;;;;;;;5419183;26;20497;-77
2024/04/13 08:42:43;;;;;;;3.60;2.07;;;;;;;;;;5419202;26;20520;-78
2024/04/13 08:45:10;;;;;;;4.43;2.20;;;;;;;;;;5406500;26;20882;-78
2024/04/13 08:47:38;;;;;;;5.67;2.70;;;;;;;;;;5393453;26;20481;-78
2024/04/13 08:50:04;;;;;;;5.20;2.03;;;;;;;;;;5408850;26;20976;-78
2024/04/13 08:52:30;;;;;;;6.33;2.30;;;;;;;;;;5418707;26;20504;-78
2024/04/13 08:54:57;;;;;;;4.53;1.40;;;;;;;;;;5418885;26;20445;-78
2024/04/13 08:57:28;;;;;;;5.47;2.17;;;;;;;;;;5418758;26;20501;-78
2024/04/13 08:59:55;;;;;;;3.30;1.90;;;;;;;;;;5398805;26;20498;-79
2024/04/13 09:02:23;;;;;;;3.60;2.00;;;;;;;;;;5397841;26;20790;-92
2024/04/13 09:04:52;;;;;;;7.00;1.73;;;;;;;;;;5399003;26;20495;-83
2024/04/13 09:07:22;;;;;;;3.27;2.20;;;;;;;;;;5381326;26;20504;-77
2024/04/13 09:09:49;;;;;;;3.43;2.17;;;;;;;;;;5383198;26;20454;-77
2024/04/13 09:12:15;;;;;;;4.03;2.27;;;;;;;;;;5383414;26;20769;-77
2024/04/13 09:14:41;;;;;;;4.47;1.90;;;;;;;;;;5394541;26;20531;-78
2024/04/13 09:17:07;;;;;;;3.40;2.30;;;;;;;;;;5390857;26;20442;-76
2024/04/13 09:19:33;;;;;;;5.00;1.70;;;;;;;;;;5381349;26;20488;-78
2024/04/13 09:21:59;;;;;;;4.27;2.00;;;;;;;;;;5382906;26;20512;-76
2024/04/13 09:24:25;;;;;;;4.80;1.70;;;;;;;;;;5382963;26;21007;-77
2024/04/13 09:26:51;;;;;;;5.13;2.00;;;;;;;;;;5382751;26;20279;-78
2024/04/13 09:29:27;;;;;;;4.30;1.70;;;;;;;;;;5380772;26;20552;-77
2024/04/13 09:31:53;;;;;;;3.80;2.07;;;;;;;;;;5382044;26;20834;-76
2024/04/13 09:34:19;;;;;;;3.30;1.87;;;;;;;;;;5382812;26;20442;-76
2024/04/13 09:36:47;;;;;;;6.00;2.23;;;;;;;;;;5382859;26;20450;-76
2024/04/13 09:39:23;;;;;;;4.60;1.50;;;;;;;;;;5382825;26;21027;-75
2024/04/13 09:41:49;;;;;;;3.53;2.00;;;;;;;;;;5382713;26;20454;-76
2024/04/13 09:44:28;;;;;;;5.13;1.73;;;;;;;;;;5383545;26;20513;-77
2024/04/13 09:46:54;;;;;;;3.60;1.43;;;;;;;;;;5382625;26;20450;-76
2024/04/13 09:49:20;;;;;;;4.70;1.73;;;;;;;;;;5384242;26;20554;-76
2024/04/13 09:51:46;;;;;;;3.60;2.10;;;;;;;;;;5383669;26;20498;-77
2024/04/13 09:54:13;;;;;;;4.70;2.10;;;;;;;;;;5382570;26;20255;-77
2024/04/13 09:56:39;;;;;;;3.50;1.43;;;;;;;;;;5382617;26;20840;-81
2024/04/13 09:59:06;;;;;;;2.77;1.40;;;;;;;;;;5382423;26;20526;-77
2024/04/13 10:01:32;;;;;;;3.37;1.77;;;;;;;;;;5382671;26;20450;-77
2024/04/13 10:03:58;;;;;;;2.63;1.73;;;;;;;;;;5382492;26;20912;-76
2024/04/13 10:06:24;;;;;;;3.53;1.10;;;;;;;;;;5382519;26;20966;-75
2024/04/13 10:08:50;;;;;;;3.97;1.37;;;;;;;;;;5380697;26;20454;-77
2024/04/13 10:11:17;;;;;;;4.17;1.23;;;;;;;;;;5382695;26;20453;-76
2024/04/13 10:13:45;;;;;;;4.07;1.33;;;;;;;;;;5381873;26;20324;-77
2024/04/13 10:16:11;;;;;;;3.13;1.50;;;;;;;;;;5391738;26;21110;-78
2024/04/13 10:18:38;;;;;;;4.23;1.00;;;;;;;;;;5394798;26;20438;-75
2024/04/13 10:21:04;;;;;;;2.53;1.40;;;;;;;;;;5381964;26;20548;-76
2024/04/13 10:23:44;;;;;;;3.27;1.40;;;;;;;;;;5382070;26;20486;-78
2024/04/13 10:26:10;;;;;;;4.70;1.80;;;;;;;;;;5381757;26;20566;-77
2024/04/13 10:28:37;;;;;;;4.13;1.60;;;;;;;;;;5381774;26;20466;-77
2024/04/13 10:31:03;;;;;;;2.63;1.10;;;;;;;;;;5382151;26;20652;-77
2024/04/13 10:33:30;;;;;;;4.93;1.40;;;;;;;;;;5381948;26;20986;-77
2024/04/13 10:36:09;;;;;;;3.47;1.10;;;;;;;;;;5405915;26;20461;-76
2024/04/13 10:38:36;;;;;;;3.27;1.23;;;;;;;;;;5413150;26;20461;-76
2024/04/13 10:41:03;;;;;;;5.30;1.17;;;;;;;;;;5417066;26;20472;-88
2024/04/13 10:43:29;;;;;;;4.00;1.47;;;;;;;;;;5415164;26;20911;-80
2024/04/13 10:46:02;;;;;;;4.03;1.30;;;;;;;;;;5417213;26;20914;-77
2024/04/13 10:48:29;;;;;;;5.23;1.67;;;;;;;;;;5408753;26;20512;-84
2024/04/13 10:50:55;;;;;;;4.47;1.30;;;;;;;;;;5417178;26;20509;-83
2024/04/13 10:53:26;;;;;;;4.07;1.47;;;;;;;;;;5416759;26;20465;-79
2024/04/13 10:55:52;;;;;;;3.50;1.00;;;;;;;;;;5416484;26;20525;-87
2024/04/13 10:58:19;;;;;;;3.57;1.03;;;;;;;;;;5416778;26;20516;-78
2024/04/13 11:00:49;;;;;;;3.33;1.37;;;;;;;;;;5411656;26;20477;-80
2024/04/13 11:03:16;;;;;;;3.90;0.90;;;;;;;;;;5417104;26;20879;-84
2024/04/13 11:05:42;;;;;;;3.63;0.97;;;;;;;;;;5414835;26;20507;-80
2024/04/13 11:08:08;;;;;;;3.80;1.20;;;;;;;;;;5415847;26;20639;-83
2024/04/13 11:10:35;;;;;;;4.67;1.10;;;;;;;;;;5416886;26;20498;-80
2024/04/13 11:13:02;;;;;;;2.13;0.70;;;;;;;;;;5409806;26;20509;-78
2024/04/13 11:15:28;;;;;;;3.30;0.90;;;;;;;;;;5380825;26;20563;-86
2024/04/13 11:17:54;;;;;;;5.20;0.73;;;;;;;;;;5380976;26;21034;-77
2024/04/13 11:20:20;;;;;;;2.07;1.07;;;;;;;;;;5380786;26;20454;-77
2024/04/13 11:22:46;;;;;;;4.60;0.70;;;;;;;;;;5380983;26;20778;-78
2024/04/13 11:25:15;;;;;;;3.90;0.90;;;;;;;;;;5380782;26;20488;-77
2024/04/13 11:27:41;;;;;;;4.60;0.87;;;;;;;;;;5380178;26;20449;-77
2024/04/13 11:30:07;;;;;;;4.20;0.50;;;;;;;;;;5380346;26;20559;-77
2024/04/13 11:32:34;;;;;;;3.90;1.13;;;;;;;;;;5380436;26;20488;-77
2024/04/13 11:35:01;;;;;;;2.87;0.60;;;;;;;;;;5380460;26;20462;-77
2024/04/13 11:37:26;;;;;;;2.87;1.33;;;;;;;;;;5380528;26;21052;-76
2024/04/13 11:39:52;;;;;;;5.47;1.40;;;;;;;;;;5380385;26;20446;-77
2024/04/13 11:42:18;;;;;;;3.83;1.20;;;;;;;;;;5378868;26;20220;-79
2024/04/13 11:44:44;;;;;;;2.30;1.00;;;;;;;;;;5384482;26;20232;-75
2024/04/13 11:47:11;;;;;;;3.93;1.50;;;;;;;;;;5380609;26;20223;-75
2024/04/13 11:49:38;;;;;;;2.33;1.03;;;;;;;;;;5380895;26;20632;-75
2024/04/13 11:52:04;;;;;;;1.80;1.00;;;;;;;;;;5380160;26;20450;-75
2024/04/13 11:54:30;;;;;;;3.50;1.03;;;;;;;;;;5382256;26;20514;-76
2024/04/13 11:56:56;;;;;;;2.90;1.20;;;;;;;;;;5384010;26;20518;-77
2024/04/13 11:59:22;;;;;;;3.33;0.83;;;;;;;;;;5382315;26;20303;-79
2024/04/13 12:01:48;;;;;;;1.90;0.73;;;;;;;;;;5394006;26;20465;-77
2024/04/13 12:04:15;;;;;;;4.37;1.30;;;;;;;;;;5381895;26;20500;-74
2024/04/13 12:06:41;;;;;;;4.50;1.63;;;;;;;;;;5387181;26;20216;-76
2024/04/13 12:09:07;;;;;;;4.13;1.47;;;;;;;;;;5419583;26;20505;-91
2024/04/13 12:11:34;;;;;;;4.63;1.20;;;;;;;;;;5419365;26;20249;-83
2024/04/13 12:14:00;;;;;;;2.47;1.50;;;;;;;;;;5419176;26;20440;-77
2024/04/13 12:16:27;;;;;;;3.33;1.33;;;;;;;;;;5419910;26;20499;-88
2024/04/13 12:18:53;;;;;;;3.30;1.40;;;;;;;;;;5415032;26;20464;-80
2024/04/13 12:21:19;;;;;;;5.17;1.47;;;;;;;;;;5418111;26;20882;-75
2024/04/13 12:23:44;;;;;;;3.70;1.40;;;;;;;;;;5417317;26;20475;-75
2024/04/13 12:26:14;;;;;;;3.43;0.87;;;;;;;;;;5407555;26;20520;-88
2024/04/13 12:28:40;;;;;;;3.13;0.60;;;;;;;;;;5410978;26;20328;-78
2024/04/13 12:31:06;;;;;;;1.80;0.80;;;;;;;;;;5397924;26;21039;-78
2024/04/13 12:33:32;;;;;;;3.40;0.70;;;;;;;;;;5383486;26;20442;-77
2024/04/13 12:35:58;;;;;;;2.10;0.87;;;;;;;;;;5384075;26;20442;-75
2024/04/13 12:38:28;;;;;;;2.13;0.90;;;;;;;;;;5391125;26;20458;-76
2024/04/13 12:40:54;;;;;;;2.67;0.67;;;;;;;;;;5419314;26;20516;-80
2024/04/13 12:43:20;;;;;;;1.87;0.70;;;;;;;;;;5419159;26;20460;-84
2024/04/13 12:45:46;;;;;;;2.43;0.60;;;;;;;;;;5418559;26;20231;-76
2024/04/13 12:48:12;;;;;;;3.23;1.33;;;;;;;;;;5417835;26;20594;-75
2024/04/13 12:50:39;;;;;;;5.20;1.30;;;;;;;;;;5418178;26;20476;-77
2024/04/13 12:53:05;;;;;;;2.53;0.73;;;;;;;;;;5419210;26;20433;-75
2024/04/13 12:55:31;;;;;;;5.10;1.50;;;;;;;;;;5419150;26;20448;-92
2024/04/13 12:57:57;;;;;;;2.40;1.10;;;;;;;;;;5418247;26;20460;-78
2024/04/13 13:00:23;;;;;;;4.70;1.33;;;;;;;;;;5418790;26;20797;-75
2024/04/13 13:02:49;;;;;;;2.83;1.00;;;;;;;;;;5416842;26;20453;-75
2024/04/13 13:05:15;;;;;;;3.80;1.10;;;;;;;;;;5416969;26;20453;-84
2024/04/13 13:07:41;;;;;;;4.33;1.23;;;;;;;;;;5418495;26;20218;-77
2024/04/13 13:10:07;;;;;;;3.33;0.63;;;;;;;;;;5413507;26;20454;-82
2024/04/13 13:12:33;;;;;;;4.20;0.90;;;;;;;;;;5398522;26;20550;-74
2024/04/13 13:14:59;;;;;;;1.70;0.90;;;;;;;;;;5387667;26;20306;-84
2024/04/13 13:17:26;;;;;;;4.00;1.30;;;;;;;;;;5405324;26;20646;-77
2024/04/13 13:19:52;;;;;;;1.93;0.80;;;;;;;;;;5399996;26;20333;-75
2024/04/13 13:22:18;;;;;;;2.30;0.77;;;;;;;;;;5381080;26;20489;-76
2024/04/13 13:24:45;;;;;;;2.20;1.03;;;;;;;;;;5382767;26;20216;-76
2024/04/13 13:27:11;;;;;;;4.07;0.97;;;;;;;;;;5382501;26;20788;-74
2024/04/13 13:29:37;;;;;;;1.97;1.17;;;;;;;;;;5382843;26;20524;-76
2024/04/13 13:32:02;;;;;;;2.60;0.93;;;;;;;;;;5382890;26;20450;-75
2024/04/13 13:34:28;;;;;;;2.80;1.10;;;;;;;;;;5383093;26;20497;-74
2024/04/13 13:36:54;;;;;;;5.20;1.37;;;;;;;;;;5381161;26;20660;-75
2024/04/13 13:39:20;;;;;;;2.83;1.13;;;;;;;;;;5382691;26;20715;-74
2024/04/13 13:41:46;;;;;;;2.20;0.87;;;;;;;;;;5383853;26;20216;-76
2024/04/13 13:44:12;;;;;;;2.97;1.07;;;;;;;;;;5418031;26;20452;-78
2024/04/13 13:46:38;;;;;;;2.80;1.20;;;;;;;;;;5418398;26;20211;-79
2024/04/13 13:49:04;;;;;;;2.33;1.63;;;;;;;;;;5418245;26;20444;-79
2024/04/13 13:51:31;;;;;;;2.70;1.20;;;;;;;;;;5418355;26;20255;-74
2024/04/13 13:53:57;;;;;;;3.37;1.20;;;;;;;;;;5418086;26;20839;-76
2024/04/13 13:56:23;;;;;;;1.93;0.83;;;;;;;;;;5416440;26;20508;-74
2024/04/13 13:58:50;;;;;;;3.30;0.83;;;;;;;;;;5417805;26;20211;-75
2024/04/13 14:01:17;;;;;;;1.40;0.60;;;;;;;;;;5418010;26;20863;-74
2024/04/13 14:03:43;;;;;;;3.03;1.43;;;;;;;;;;5417965;26;20493;-74
2024/04/13 14:06:09;;;;;;;4.20;1.00;;;;;;;;;;5418209;26;21006;-76
2024/04/13 14:08:35;;;;;;;3.27;1.37;;;;;;;;;;5417780;26;20541;-74
2024/04/13 14:11:01;;;;;;;2.87;0.73;;;;;;;;;;5417894;26;20849;-75
2024/04/13 14:13:27;;;;;;;2.10;0.83;;;;;;;;;;5417364;26;20218;-76
2024/04/13 14:15:53;;;;;;;2.17;1.10;;;;;;;;;;5417823;26;20865;-76
2024/04/13 14:18:19;;;;;;;2.93;0.97;;;;;;;;;;5417611;26;20445;-76
2024/04/13 14:20:45;;;;;;;2.97;1.30;;;;;;;;;;5417355;26;20226;-76
2024/04/13 14:23:11;;;;;;;1.70;0.90;;;;;;;;;;5417640;26;20440;-75
2024/04/13 14:25:38;;;;;;;4.00;1.20;;;;;;;;;;5417931;26;20783;-75
2024/04/13 14:28:04;;;;;;;2.47;1.33;;;;;;;;;;5415622;26;21028;-80
2024/04/13 14:30:33;;;;;;;3.07;1.33;;;;;;;;;;5417598;26;20505;-80
2024/04/13 14:32:59;;;;;;;2.57;1.10;;;;;;;;;;5417676;26;20493;-76
2024/04/13 14:35:24;;;;;;;2.17;1.10;;;;;;;;;;5417596;26;20448;-76
2024/04/13 14:37:51;;;;;;;2.63;1.27;;;;;;;;;;5417450;26;20226;-77